Time;durP1;ratioP1;P1;durP2;ratioP2;P2;SDS_P1;SDS_P2;PMS_P1;PMS_P2;Temp;Humidity;BMP_temperature;BMP_pressure;BME280_temperature;BME280_humidity;BME280_pressure;Samples;Min_cycle;Max_cycle;Signal;HPM_P1;HPM_P2
2023/01/27 00:00:36;;;;;;;41.20;23.40;;;;;;;-0.12;76.04;100465.02;103275;1253;109638;-76
2023/01/27 00:03:23;;;;;;;40.40;23.60;;;;;;;-0.11;76.07;100465.37;103501;1253;138501;-76
2023/01/27 00:05:50;;;;;;;37.50;23.30;;;;;;;-0.12;76.03;100464.67;103586;1253;99358;-77
2023/01/27 00:08:18;;;;;;;38.50;22.90;;;;;;;-0.11;76.07;100461.95;103212;1253;138680;-75
2023/01/27 00:10:46;;;;;;;39.00;24.30;;;;;;;-0.10;76.05;100458.73;103535;1253;96908;-76
2023/01/27 00:13:30;;;;;;;40.10;23.40;;;;;;;-0.08;75.95;100459.09;102472;1253;1002931;-76
2023/01/27 00:15:58;;;;;;;38.20;23.50;;;;;;;-0.06;76.05;100460.98;103058;1257;140100;-76
2023/01/27 00:18:25;;;;;;;40.50;24.60;;;;;;;-0.05;75.94;100466.48;103228;1253;96438;-76
2023/01/27 00:26:23;;;;;;;41.10;23.60;;;;;;;-0.07;75.82;100465.60;103131;1257;139959;-75
2023/01/27 00:28:50;;;;;;;39.20;23.70;;;;;;;-0.07;75.89;100467.30;103592;1257;107359;-75
2023/01/27 00:34:09;;;;;;;41.80;24.80;;;;;;;-0.05;76.09;100469.89;103187;1258;138584;-76
2023/01/27 00:36:39;;;;;;;40.90;23.60;;;;;;;-0.06;75.83;100470.23;103487;1257;96437;-78
2023/01/27 00:39:08;;;;;;;44.70;25.90;;;;;;;-0.06;75.86;100469.36;103153;1256;140667;-75
2023/01/27 00:41:35;;;;;;;50.20;30.40;;;;;;;-0.05;75.93;100468.70;103217;1253;106979;-76
2023/01/27 00:44:04;;;;;;;46.80;29.40;;;;;;;-0.04;75.87;100470.59;103105;1253;97052;-76
2023/01/27 00:46:33;;;;;;;43.90;26.50;;;;;;;-0.05;75.75;100466.13;103069;1253;138576;-76
2023/01/27 00:49:01;;;;;;;44.80;27.20;;;;;;;-0.06;75.76;100472.27;103239;1253;96457;-76
2023/01/27 00:51:29;;;;;;;43.50;25.70;;;;;;;-0.10;75.69;100471.88;103125;1252;139206;-74
2023/01/27 00:53:58;;;;;;;42.20;26.20;;;;;;;-0.13;75.71;100474.73;102367;1253;1003100;-77
2023/01/27 00:56:27;;;;;;;46.80;25.50;;;;;;;-0.16;75.79;100478.12;103105;1253;140429;-74
2023/01/27 00:58:54;;;;;;;43.20;25.20;;;;;;;-0.18;75.84;100478.77;102511;1257;1002842;-75
2023/01/27 01:01:21;;;;;;;45.60;25.50;;;;;;;-0.19;75.90;100477.55;103211;1257;96461;-75
2023/01/27 01:03:48;;;;;;;41.10;25.20;;;;;;;-0.20;75.77;100477.35;102962;1258;138450;-75
2023/01/27 01:06:17;;;;;;;42.20;25.30;;;;;;;-0.21;75.84;100480.08;103081;1253;107238;-76
2023/01/27 01:08:48;;;;;;;39.70;24.70;;;;;;;-0.21;76.03;100479.90;103173;1259;140434;-75
2023/01/27 01:11:17;;;;;;;39.90;23.20;;;;;;;-0.20;75.95;100480.59;101820;1253;1003456;-76
2023/01/27 01:13:45;;;;;;;42.60;25.40;;;;;;;-0.20;75.94;100478.21;103320;1253;96350;-74
2023/01/27 01:16:15;;;;;;;42.60;24.60;;;;;;;-0.20;75.80;100474.95;103137;1253;138766;-75
2023/01/27 01:18:42;;;;;;;40.10;24.00;;;;;;;-0.21;75.84;100474.95;103254;1257;106791;-76
2023/01/27 01:21:11;;;;;;;41.40;24.20;;;;;;;-0.21;75.84;100478.02;103111;1253;139016;-76
2023/01/27 01:23:42;;;;;;;38.10;22.80;;;;;;;-0.20;75.84;100480.08;102708;1256;1002904;-76
2023/01/27 01:26:11;;;;;;;40.20;23.50;;;;;;;-0.21;75.71;100480.77;103148;1253;96445;-78
2023/01/27 01:28:38;;;;;;;38.40;23.90;;;;;;;-0.21;75.70;100478.02;103196;1257;109453;-76
2023/01/27 01:31:10;;;;;;;36.40;22.40;;;;;;;-0.22;75.68;100474.60;103217;1253;108113;-76
2023/01/27 01:33:37;;;;;;;37.50;23.20;;;;;;;-0.22;75.66;100474.41;103161;1253;138587;-76
2023/01/27 01:36:11;;;;;;;38.10;23.30;;;;;;;-0.22;75.62;100474.93;103170;1253;108789;-77
2023/01/27 01:38:39;;;;;;;35.80;22.90;;;;;;;-0.21;75.71;100476.48;103266;1257;138733;-75
2023/01/27 01:41:07;;;;;;;38.80;23.60;;;;;;;-0.21;75.69;100475.13;103210;1254;110046;-76
2023/01/27 01:43:34;;;;;;;38.70;23.40;;;;;;;-0.20;75.68;100474.95;103189;1253;107601;-76
2023/01/27 01:46:03;;;;;;;37.20;23.50;;;;;;;-0.20;75.66;100475.30;103192;1254;139307;-76
2023/01/27 01:48:39;;;;;;;37.90;22.60;;;;;;;-0.20;75.55;100472.56;103670;1257;108368;-76
2023/01/27 01:51:10;;;;;;;39.20;23.20;;;;;;;-0.18;75.53;100476.05;102840;1253;139072;-76
2023/01/27 01:53:41;;;;;;;42.40;23.20;;;;;;;-0.18;75.41;100480.31;103186;1254;110744;-75
2023/01/27 01:56:13;;;;;;;39.10;23.00;;;;;;;-0.18;75.54;100478.07;103172;1253;107416;-76
2023/01/27 01:58:42;;;;;;;41.30;23.60;;;;;;;-0.19;75.23;100478.91;103400;1253;96535;-77
2023/01/27 02:01:17;;;;;;;38.70;23.00;;;;;;;-0.19;75.45;100478.73;103124;1257;107649;-74
2023/01/27 02:03:48;;;;;;;37.30;23.10;;;;;;;-0.20;75.37;100475.30;103077;1253;138609;-75
2023/01/27 02:06:16;;;;;;;37.60;22.20;;;;;;;-0.23;75.27;100476.29;103252;1253;109729;-76
2023/01/27 02:08:45;;;;;;;37.90;22.50;;;;;;;-0.26;75.16;100478.13;103052;1256;139115;-75
2023/01/27 02:11:13;;;;;;;37.80;22.30;;;;;;;-0.29;75.43;100476.03;103277;1257;96985;-76
2023/01/27 02:13:41;;;;;;;31.80;20.50;;;;;;;-0.30;75.28;100476.36;103267;1256;107678;-75
2023/01/27 02:16:10;;;;;;;34.60;20.60;;;;;;;-0.32;75.11;100476.00;103110;1255;138706;-78
2023/01/27 02:18:38;;;;;;;36.00;22.00;;;;;;;-0.34;75.09;100480.07;103373;1253;109609;-76
2023/01/27 02:21:07;;;;;;;35.40;21.60;;;;;;;-0.35;75.25;100479.88;102393;1253;1002907;-76
2023/01/27 02:23:46;;;;;;;36.90;21.50;;;;;;;-0.36;75.17;100478.50;103154;1254;96543;-75
2023/01/27 02:26:19;;;;;;;36.40;21.30;;;;;;;-0.35;75.21;100475.62;103137;1257;108766;-75
2023/01/27 02:28:51;;;;;;;31.70;19.20;;;;;;;-0.34;75.08;100478.70;103083;1253;96371;-76
2023/01/27 02:31:20;;;;;;;32.70;19.80;;;;;;;-0.36;74.83;100480.54;102510;1253;1003220;-76
2023/01/27 02:33:48;;;;;;;35.00;21.30;;;;;;;-0.37;74.76;100484.43;103028;1256;138755;-74
2023/01/27 02:36:17;;;;;;;32.60;19.10;;;;;;;-0.38;74.61;100489.55;103104;1257;98219;-74
2023/01/27 02:38:48;;;;;;;33.40;20.50;;;;;;;-0.39;74.79;100487.83;103084;1253;139666;-76
2023/01/27 02:41:23;;;;;;;32.90;20.10;;;;;;;-0.38;74.75;100493.14;103921;1253;95266;-76
2023/01/27 02:43:52;;;;;;;34.80;20.70;;;;;;;-0.37;74.88;100485.96;103230;1257;110069;-76
2023/01/27 02:46:20;;;;;;;35.30;21.10;;;;;;;-0.36;74.81;100482.92;103014;1253;139494;-77
2023/01/27 02:48:47;;;;;;;36.30;20.80;;;;;;;-0.36;74.82;100480.04;102492;1253;1002731;-77
2023/01/27 02:51:15;;;;;;;34.00;21.50;;;;;;;-0.35;74.60;100483.80;102262;1256;1003296;-76
2023/01/27 02:53:43;;;;;;;33.50;20.30;;;;;;;-0.36;74.65;100488.38;103239;1253;96393;-75
2023/01/27 02:56:10;;;;;;;34.70;20.80;;;;;;;-0.35;74.52;100483.96;103115;1255;109856;-76
2023/01/27 02:58:37;;;;;;;34.20;20.40;;;;;;;-0.35;74.52;100481.77;103075;1253;141213;-76
2023/01/27 03:01:14;;;;;;;32.90;20.70;;;;;;;-0.33;74.58;100479.40;103186;1253;95101;-76
2023/01/27 03:03:45;;;;;;;33.00;19.70;;;;;;;-0.33;74.51;100483.67;103150;1256;138345;-76
2023/01/27 03:06:16;;;;;;;37.60;21.60;;;;;;;-0.33;74.52;100484.71;103116;1253;96434;-76
2023/01/27 03:08:44;;;;;;;32.50;20.80;;;;;;;-0.31;74.45;100480.29;103061;1253;139279;-76
2023/01/27 03:11:12;;;;;;;33.00;20.50;;;;;;;-0.29;74.48;100485.94;103120;1256;106746;-77
2023/01/27 03:13:40;;;;;;;34.30;20.80;;;;;;;-0.27;74.53;100486.66;103156;1258;96327;-77
2023/01/27 03:18:56;;;;;;;34.90;20.40;;;;;;;-0.24;74.37;100482.95;103125;1253;96491;-76
2023/01/27 03:21:24;;;;;;;36.00;22.10;;;;;;;-0.21;74.36;100479.56;102941;1253;1002704;-77
2023/01/27 03:23:51;;;;;;;38.10;22.90;;;;;;;-0.20;74.29;100481.98;102421;1254;1003651;-76
2023/01/27 03:26:20;;;;;;;37.10;21.80;;;;;;;-0.18;74.32;100485.27;103279;1253;97085;-77
2023/01/27 03:29:53;;;;;;;36.10;22.60;;;;;;;-0.17;74.22;100486.48;103202;1253;107427;-78
2023/01/27 03:31:41;;;;;;;38.60;22.50;;;;;;;-0.15;74.28;100485.82;103227;1253;96555;-76
2023/01/27 03:34:09;;;;;;;37.40;22.60;;;;;;;-0.14;74.23;100483.62;102959;1258;138853;-75
2023/01/27 03:47:57;;;;;;;36.40;22.10;;;;;;;-0.06;74.14;100487.31;103638;1257;109969;-76
2023/01/27 03:50:36;;;;;;;37.20;21.50;;;;;;;-0.05;74.16;100489.04;103377;1254;138770;-75
2023/01/27 03:53:04;;;;;;;36.30;22.40;;;;;;;-0.06;73.99;100486.46;103286;1256;97052;-76
2023/01/27 03:55:31;;;;;;;34.60;21.00;;;;;;;-0.05;73.86;100485.95;103203;1257;107972;-76
2023/01/27 03:58:13;;;;;;;40.10;22.80;;;;;;;-0.03;73.90;100486.50;103123;1253;139366;-76
2023/01/27 04:00:40;;;;;;;37.00;21.80;;;;;;;0.01;73.99;100490.85;103984;1253;110097;-77
2023/01/27 04:08:36;;;;;;;34.50;21.20;;;;;;;0.09;73.74;100503.94;103369;1253;140207;-76
2023/01/27 04:13:52;;;;;;;37.30;22.40;;;;;;;0.14;73.54;100502.13;103483;1253;109903;-77
2023/01/27 04:16:27;;;;;;;37.20;23.00;;;;;;;0.16;73.57;100501.98;103295;1254;138598;-76
2023/01/27 04:18:55;;;;;;;39.20;23.30;;;;;;;0.18;73.53;100504.08;103203;1253;96533;-76
2023/01/27 04:21:22;;;;;;;36.30;22.00;;;;;;;0.20;73.51;100509.06;103164;1253;138229;-77
2023/01/27 04:23:49;;;;;;;37.00;22.90;;;;;;;0.21;73.37;100508.58;103303;1253;96987;-76
2023/01/27 04:26:16;;;;;;;37.80;22.80;;;;;;;0.22;73.39;100508.58;103306;1253;110200;-75
2023/01/27 04:28:43;;;;;;;39.40;24.20;;;;;;;0.22;73.20;100506.52;102422;1257;1003713;-76
2023/01/27 04:31:11;;;;;;;38.90;24.10;;;;;;;0.22;73.14;100508.23;103342;1254;96319;-76
2023/01/27 04:33:38;;;;;;;40.50;23.50;;;;;;;0.22;73.13;100505.33;103328;1256;138233;-76
2023/01/27 04:36:07;;;;;;;40.50;23.50;;;;;;;0.22;73.13;100506.52;103250;1253;96429;-76
2023/01/27 04:38:34;;;;;;;41.50;25.80;;;;;;;0.22;73.24;100507.22;103281;1253;138427;-76
2023/01/27 04:41:01;;;;;;;40.70;24.20;;;;;;;0.22;73.14;100507.55;103373;1257;107045;-76
2023/01/27 04:43:28;;;;;;;41.30;24.80;;;;;;;0.22;73.21;100509.95;103392;1253;96351;-76
2023/01/27 04:45:55;;;;;;;37.50;23.50;;;;;;;0.23;73.12;100506.88;103234;1253;140147;-75
2023/01/27 04:48:22;;;;;;;41.50;25.20;;;;;;;0.23;73.10;100506.54;103497;1253;96217;-76
2023/01/27 04:50:51;;;;;;;39.00;24.20;;;;;;;0.23;73.11;100509.10;102991;1257;1003397;-76
2023/01/27 04:53:18;;;;;;;37.10;22.70;;;;;;;0.21;72.88;100512.16;103215;1253;106027;-75
2023/01/27 04:55:49;;;;;;;36.50;22.80;;;;;;;0.18;72.82;100511.08;103263;1257;97089;-75
2023/01/27 04:58:18;;;;;;;46.70;23.40;;;;;;;0.17;72.99;100512.92;102418;1253;1003360;-76
2023/01/27 05:00:45;;;;;;;34.10;21.40;;;;;;;0.18;73.10;100517.73;103657;1254;96505;-76
2023/01/27 05:03:13;;;;;;;37.40;21.70;;;;;;;0.18;73.05;100518.27;102389;1257;1003242;-76
2023/01/27 05:05:40;;;;;;;36.40;21.80;;;;;;;0.19;73.02;100524.96;103115;1258;107453;-77
2023/01/27 05:08:09;;;;;;;36.50;20.60;;;;;;;0.20;72.90;100525.16;102593;1253;1005467;-76
2023/01/27 05:10:37;;;;;;;37.40;22.40;;;;;;;0.21;72.91;100526.35;103052;1256;138804;-76
2023/01/27 05:13:04;;;;;;;38.80;23.10;;;;;;;0.23;72.99;100525.17;103035;1258;1003428;-77
2023/01/27 05:15:32;;;;;;;40.10;22.40;;;;;;;0.24;72.95;100524.35;103080;1253;138617;-78
2023/01/27 05:17:59;;;;;;;38.70;24.10;;;;;;;0.25;72.95;100528.63;103130;1256;106625;-77
2023/01/27 05:20:26;;;;;;;37.90;23.40;;;;;;;0.26;72.97;100532.23;103096;1256;139364;-75
2023/01/27 05:23:33;;;;;;;35.80;23.40;;;;;;;0.27;73.03;100534.13;103238;1253;107764;-75
2023/01/27 05:25:44;;;;;;;35.30;22.10;;;;;;;0.27;73.00;100534.30;103223;1253;98285;-76
2023/01/27 05:28:11;;;;;;;37.90;23.20;;;;;;;0.27;72.80;100535.83;103173;1253;138929;-76
2023/01/27 05:30:38;;;;;;;35.60;20.70;;;;;;;0.25;72.64;100541.80;103280;1257;107137;-76
2023/01/27 05:33:07;;;;;;;33.40;21.60;;;;;;;0.24;72.76;100544.36;103638;1253;138551;-75
2023/01/27 05:35:35;;;;;;;37.90;22.90;;;;;;;0.25;72.82;100547.44;103321;1257;107486;-77
2023/01/27 05:38:02;;;;;;;39.20;23.20;;;;;;;0.27;72.96;100548.32;103227;1257;97663;-76
2023/01/27 05:40:29;;;;;;;39.90;24.30;;;;;;;0.28;72.87;100545.25;103103;1253;139341;-76
2023/01/27 05:42:56;;;;;;;40.90;24.30;;;;;;;0.28;72.97;100550.22;103276;1253;107508;-76
2023/01/27 05:45:23;;;;;;;42.60;24.90;;;;;;;0.31;73.09;100555.38;103152;1256;139640;-76
2023/01/27 05:47:52;;;;;;;40.70;24.70;;;;;;;0.33;73.20;100554.38;103258;1257;106991;-77
2023/01/27 05:50:20;;;;;;;40.70;25.40;;;;;;;0.34;73.08;100553.89;101807;1257;1002945;-75
2023/01/27 05:52:47;;;;;;;38.20;23.70;;;;;;;0.34;73.21;100552.86;103168;1257;110705;-76
2023/01/27 05:55:14;;;;;;;42.20;24.40;;;;;;;0.35;72.96;100551.31;103875;1253;107139;-76
2023/01/27 05:57:41;;;;;;;40.60;25.10;;;;;;;0.35;73.06;100553.73;103095;1258;138431;-75
2023/01/27 06:00:11;;;;;;;39.50;24.30;;;;;;;0.35;73.15;100554.74;102656;1257;1003397;-75
2023/01/27 06:02:38;;;;;;;44.40;26.50;;;;;;;0.34;73.19;100553.89;103381;1253;139466;-75
2023/01/27 06:05:06;;;;;;;43.00;25.20;;;;;;;0.33;73.33;100556.09;103240;1257;110812;-76
2023/01/27 06:07:34;;;;;;;48.00;28.40;;;;;;;0.32;73.35;100556.42;103038;1256;107888;-76
2023/01/27 06:10:01;;;;;;;50.50;30.70;;;;;;;0.31;73.49;100560.34;103109;1253;138561;-76
2023/01/27 06:12:28;;;;;;;47.90;27.90;;;;;;;0.30;73.43;100567.35;103240;1253;107715;-76
2023/01/27 06:14:58;;;;;;;45.00;27.10;;;;;;;0.31;73.66;100571.80;103093;1259;140361;-76
2023/01/27 06:17:25;;;;;;;43.30;26.10;;;;;;;0.33;73.74;100574.73;103338;1253;111493;-64
2023/01/27 06:19:52;;;;;;;40.90;25.20;;;;;;;0.34;73.82;100579.36;103203;1256;107766;-66
2023/01/27 06:22:20;;;;;;;44.20;26.70;;;;;;;0.35;73.93;100581.42;103204;1253;138515;-66
2023/01/27 06:24:47;;;;;;;46.50;25.50;;;;;;;0.34;73.98;100584.84;103288;1253;107503;-65
2023/01/27 06:27:15;;;;;;;43.70;25.80;;;;;;;0.33;73.82;100589.10;103129;1259;138843;-84
2023/01/27 06:29:42;;;;;;;43.60;26.40;;;;;;;0.33;73.94;100591.33;103281;1256;112525;-76
2023/01/27 06:32:09;;;;;;;45.60;27.10;;;;;;;0.33;74.02;100595.76;103347;1253;107276;-79
2023/01/27 06:34:36;;;;;;;44.70;26.50;;;;;;;0.33;73.85;100598.52;103195;1253;138973;-78
2023/01/27 06:37:03;;;;;;;46.60;27.30;;;;;;;0.33;74.01;100603.30;103258;1253;107364;-78
2023/01/27 06:39:30;;;;;;;47.80;27.80;;;;;;;0.34;74.23;100603.48;103080;1257;138521;-79
2023/01/27 06:41:58;;;;;;;48.10;27.70;;;;;;;0.36;74.33;100599.59;102450;1253;1002473;-72
2023/01/27 06:44:25;;;;;;;46.40;28.90;;;;;;;0.36;74.28;100604.56;102916;1252;140152;-75
2023/01/27 06:46:52;;;;;;;52.10;29.60;;;;;;;0.35;74.37;100606.91;103309;1253;97792;-83
2023/01/27 06:49:19;;;;;;;48.70;28.40;;;;;;;0.36;74.34;100609.85;103247;1257;107079;-76
2023/01/27 06:51:47;;;;;;;49.60;28.00;;;;;;;0.36;74.52;100612.58;103175;1253;138956;-79
2023/01/27 06:54:14;;;;;;;47.70;27.30;;;;;;;0.36;74.48;100609.85;103285;1253;110723;-82
2023/01/27 06:56:41;;;;;;;48.80;27.20;;;;;;;0.36;74.44;100607.98;102451;1259;1003493;-80
2023/01/27 06:59:08;;;;;;;50.40;28.80;;;;;;;0.34;74.38;100611.01;103397;1253;97993;-80
2023/01/27 07:01:36;;;;;;;50.50;28.00;;;;;;;0.34;74.66;100613.57;102596;1253;1003359;-81
2023/01/27 07:04:03;;;;;;;55.60;31.70;;;;;;;0.36;74.66;100614.14;103060;1255;140154;-82
2023/01/27 07:06:30;;;;;;;49.40;30.30;;;;;;;0.40;75.20;100608.55;103174;1255;109708;-81
2023/01/27 07:08:57;;;;;;;52.50;29.80;;;;;;;0.45;75.17;100606.05;103033;1255;140045;-79
2023/01/27 07:11:24;;;;;;;53.60;31.10;;;;;;;0.50;75.30;100609.36;102436;1256;1003546;-78
2023/01/27 07:13:51;;;;;;;52.60;31.10;;;;;;;0.56;75.28;100608.62;103214;1254;107915;-82
2023/01/27 07:16:19;;;;;;;58.00;32.10;;;;;;;0.59;75.17;100607.11;102977;1253;138592;-83
2023/01/27 07:18:46;;;;;;;57.30;31.30;;;;;;;0.64;75.38;100608.20;103269;1254;111276;-84
2023/01/27 07:21:14;;;;;;;57.50;32.90;;;;;;;0.73;75.56;100606.95;103224;1258;139045;-84
2023/01/27 07:23:43;;;;;;;58.50;33.00;;;;;;;0.82;75.52;100609.81;103223;1256;97894;-78
2023/01/27 07:26:10;;;;;;;61.80;34.30;;;;;;;0.92;75.67;100611.66;102409;1258;1003468;-83
2023/01/27 07:28:50;;;;;;;60.30;33.90;;;;;;;1.01;75.11;100611.77;103197;1258;97675;-82
2023/01/27 07:31:18;;;;;;;66.30;37.00;;;;;;;1.05;74.98;100609.92;103195;1256;112563;-81
2023/01/27 07:33:45;;;;;;;69.20;36.90;;;;;;;1.12;74.90;100609.69;102942;1256;138602;-81
2023/01/27 07:36:13;;;;;;;72.80;39.80;;;;;;;1.20;74.66;100609.59;103173;1254;97847;-81
2023/01/27 07:38:40;;;;;;;75.00;40.80;;;;;;;1.26;74.62;100608.13;103042;1256;139593;-80
2023/01/27 07:41:07;;;;;;;79.70;41.10;;;;;;;1.29;74.23;100608.00;103250;1256;97961;-82
2023/01/27 07:43:35;;;;;;;78.50;42.20;;;;;;;1.29;74.09;100611.42;102576;1255;1003421;-86
2023/01/27 07:46:06;;;;;;;88.40;43.00;;;;;;;1.29;74.26;100615.02;103204;1254;140046;-84
2023/01/27 07:48:34;;;;;;;78.30;42.00;;;;;;;1.30;74.41;100618.63;103215;1258;97806;-81
2023/01/27 07:51:01;;;;;;;77.60;41.70;;;;;;;1.31;74.23;100614.02;103103;1256;139682;-83
2023/01/27 07:53:28;;;;;;;76.70;41.00;;;;;;;1.33;74.24;100616.09;103183;1254;97846;-81
2023/01/27 07:55:56;;;;;;;71.30;38.50;;;;;;;1.35;73.90;100616.96;102361;1256;1003335;-85
2023/01/27 07:58:23;;;;;;;67.80;37.90;;;;;;;1.35;73.53;100618.15;103043;1254;139885;-79
2023/01/27 08:00:50;;;;;;;64.30;36.20;;;;;;;1.32;73.41;100620.70;103161;1256;97798;-76
2023/01/27 08:03:23;;;;;;;62.00;36.00;;;;;;;1.34;73.63;100622.61;102174;1258;1002740;-77
2023/01/27 08:05:51;;;;;;;66.80;37.10;;;;;;;1.36;73.48;100618.86;103169;1257;97778;-76
2023/01/27 08:08:19;;;;;;;65.50;35.90;;;;;;;1.40;73.49;100618.38;103009;1254;110385;-75
2023/01/27 08:10:48;;;;;;;63.80;36.10;;;;;;;1.43;73.12;100619.79;103062;1257;139867;-78
2023/01/27 08:13:15;;;;;;;58.70;32.60;;;;;;;1.48;73.09;100621.73;103262;1253;98405;-84
2023/01/27 08:15:43;;;;;;;58.00;32.70;;;;;;;1.52;72.78;100619.89;103105;1253;139098;-84
2023/01/27 08:18:10;;;;;;;54.50;31.20;;;;;;;1.56;72.71;100620.62;103192;1255;97684;-75
2023/01/27 08:20:38;;;;;;;54.70;31.90;;;;;;;1.63;72.52;100621.90;102236;1259;1003481;-76
2023/01/27 08:23:05;;;;;;;58.70;32.30;;;;;;;1.70;72.41;100620.08;102221;1254;1002928;-78
2023/01/27 08:25:32;;;;;;;49.80;29.40;;;;;;;1.78;72.25;100624.08;103250;1257;97799;-76
2023/01/27 08:27:59;;;;;;;47.70;27.90;;;;;;;1.85;71.99;100626.91;103077;1253;138335;-78
2023/01/27 08:30:26;;;;;;;52.20;30.50;;;;;;;1.93;71.91;100630.40;103186;1259;98319;-75
2023/01/27 08:32:53;;;;;;;58.10;32.10;;;;;;;2.02;71.50;100632.03;102520;1253;1003166;-74
2023/01/27 08:35:20;;;;;;;58.10;32.40;;;;;;;2.08;71.36;100630.02;103200;1254;106434;-74
2023/01/27 08:37:50;;;;;;;62.20;33.90;;;;;;;2.16;71.35;100630.09;102453;1258;1003738;-73
2023/01/27 08:40:19;;;;;;;61.10;34.70;;;;;;;2.23;71.30;100632.38;103118;1254;138767;-80
2023/01/27 08:42:49;;;;;;;54.80;31.10;;;;;;;2.32;71.41;100637.58;103283;1253;97851;-74
2023/01/27 08:45:17;;;;;;;55.20;31.00;;;;;;;2.41;71.13;100637.66;103024;1253;138279;-75
2023/01/27 08:47:44;;;;;;;49.90;29.90;;;;;;;2.50;70.76;100636.16;103157;1257;108444;-73
2023/01/27 08:50:12;;;;;;;50.20;29.90;;;;;;;2.56;70.51;100637.25;103327;1256;98345;-75
2023/01/27 08:52:40;;;;;;;51.30;29.60;;;;;;;2.60;69.92;100633.15;103199;1253;138333;-73
2023/01/27 08:55:08;;;;;;;46.90;28.40;;;;;;;2.63;69.60;100641.23;102573;1253;1002726;-73
2023/01/27 08:57:36;;;;;;;46.40;27.70;;;;;;;2.64;69.46;100639.18;103181;1253;138715;-75
2023/01/27 09:00:05;;;;;;;44.70;26.20;;;;;;;2.66;69.64;100644.00;103269;1257;106740;-76
2023/01/27 09:02:32;;;;;;;46.80;27.70;;;;;;;2.69;69.02;100647.62;103348;1256;140057;-76
2023/01/27 09:05:00;;;;;;;46.80;26.80;;;;;;;2.66;68.72;100645.71;103191;1253;107446;-76
2023/01/27 09:07:27;;;;;;;45.50;27.40;;;;;;;2.64;68.65;100649.65;102544;1253;1002901;-75
2023/01/27 09:09:54;;;;;;;45.00;27.00;;;;;;;2.63;68.47;100650.67;102364;1258;1002974;-74
2023/01/27 09:12:39;;;;;;;46.40;26.00;;;;;;;2.64;68.16;100651.37;103264;1258;107675;-73
2023/01/27 09:15:07;;;;;;;38.80;23.80;;;;;;;2.65;67.95;100651.55;103172;1257;140579;-73
2023/01/27 09:17:34;;;;;;;48.30;26.30;;;;;;;2.71;68.85;100649.71;103284;1257;107427;-75
2023/01/27 09:20:02;;;;;;;45.80;25.70;;;;;;;2.83;69.43;100646.85;103257;1257;97930;-74
2023/01/27 09:22:29;;;;;;;41.40;25.00;;;;;;;2.98;69.85;100644.88;103190;1253;138287;-72
2023/01/27 09:24:56;;;;;;;39.10;23.80;;;;;;;3.08;67.76;100641.84;103239;1259;107618;-75
2023/01/27 09:27:23;;;;;;;39.40;24.20;;;;;;;3.17;67.74;100636.71;102998;1256;138122;-80
2023/01/27 09:30:06;;;;;;;43.60;26.50;;;;;;;3.39;67.69;100644.88;103105;1253;107894;-83
2023/01/27 09:32:34;;;;;;;48.10;27.10;;;;;;;3.62;67.59;100647.52;103224;1254;139484;-81
2023/01/27 09:35:01;;;;;;;42.50;24.70;;;;;;;3.88;67.04;100644.65;103268;1258;111017;-81
2023/01/27 09:37:28;;;;;;;44.00;25.80;;;;;;;4.15;67.10;100635.72;103294;1256;106282;-81
2023/01/27 09:40:02;;;;;;;44.20;26.00;;;;;;;4.52;66.38;100628.12;103219;1253;138213;-82
2023/01/27 09:42:47;;;;;;;40.00;24.90;;;;;;;4.81;65.71;100632.04;103503;1259;106057;-82
2023/01/27 09:45:28;;;;;;;40.80;26.00;;;;;;;5.14;65.29;100633.13;103147;1258;138114;-81
2023/01/27 09:48:21;;;;;;;41.10;26.40;;;;;;;5.53;65.41;100638.30;103313;1256;111349;-82
2023/01/27 09:50:55;;;;;;;43.90;27.00;;;;;;;5.87;64.78;100637.93;103166;1254;138101;-82
2023/01/27 09:53:51;;;;;;;45.10;28.10;;;;;;;6.07;64.42;100637.64;103334;1254;97803;-81
2023/01/27 09:56:32;;;;;;;48.50;29.50;;;;;;;6.21;63.41;100634.77;103163;1253;106379;-84
2023/01/27 09:59:15;;;;;;;48.10;27.90;;;;;;;6.27;62.60;100636.42;103313;1257;97781;-81
2023/01/27 10:01:53;;;;;;;43.70;25.60;;;;;;;6.31;62.88;100637.80;103407;1256;111436;-80
2023/01/27 10:04:39;;;;;;;36.80;24.40;;;;;;;6.37;62.69;100637.74;103170;1254;139023;-78
2023/01/27 10:07:22;;;;;;;42.20;24.20;;;;;;;6.35;62.04;100635.52;103414;1257;98151;-78
2023/01/27 10:10:10;;;;;;;36.30;23.90;;;;;;;6.28;61.83;100636.09;103183;1258;137958;-76
2023/01/27 10:12:53;;;;;;;34.10;22.90;;;;;;;6.16;61.18;100639.98;103344;1257;97807;-81
2023/01/27 10:15:38;;;;;;;38.30;23.60;;;;;;;6.01;60.94;100636.30;102457;1259;1002948;-78
2023/01/27 10:18:17;;;;;;;38.70;25.50;;;;;;;5.89;61.00;100639.65;103315;1259;108404;-78
2023/01/27 10:20:59;;;;;;;36.70;25.10;;;;;;;5.83;61.46;100636.39;103234;1257;138248;-78
2023/01/27 10:23:41;;;;;;;40.60;26.00;;;;;;;5.77;61.19;100639.03;103370;1256;108195;-78
2023/01/27 10:26:20;;;;;;;39.80;25.50;;;;;;;5.68;61.15;100645.62;103379;1257;97698;-83
2023/01/27 10:28:54;;;;;;;35.80;23.60;;;;;;;5.59;61.32;100647.94;103258;1254;137491;-80
2023/01/27 10:31:26;;;;;;;40.00;25.00;;;;;;;5.45;60.96;100649.73;103345;1258;108175;-81
2023/01/27 10:33:55;;;;;;;40.00;24.90;;;;;;;5.27;60.24;100655.14;103341;1253;138675;-81
2023/01/27 10:36:28;;;;;;;40.10;25.80;;;;;;;5.04;60.63;100663.67;103333;1257;108997;-78
2023/01/27 10:39:08;;;;;;;40.80;26.30;;;;;;;4.87;61.03;100663.89;103674;1254;138097;-78
2023/01/27 10:41:43;;;;;;;46.90;26.20;;;;;;;4.73;61.47;100665.83;103387;1257;111949;-82
2023/01/27 10:44:29;;;;;;;43.20;26.70;;;;;;;4.59;61.52;100675.30;103292;1256;107734;-78
2023/01/27 10:47:09;;;;;;;43.20;26.00;;;;;;;4.45;61.52;100675.66;103311;1255;97976;-80
2023/01/27 10:49:40;;;;;;;45.60;27.30;;;;;;;4.31;61.55;100672.90;103323;1258;107971;-77
2023/01/27 10:52:13;;;;;;;47.20;26.80;;;;;;;4.16;61.78;100671.87;103283;1254;138357;-81
2023/01/27 10:54:46;;;;;;;46.80;28.20;;;;;;;4.03;61.96;100673.58;103443;1259;110838;-85
2023/01/27 10:57:18;;;;;;;48.10;28.90;;;;;;;3.87;61.98;100674.40;103241;1257;139250;-79
2023/01/27 10:59:53;;;;;;;45.70;27.70;;;;;;;3.76;62.36;100680.58;103315;1256;97786;-81
2023/01/27 11:02:46;;;;;;;50.80;29.30;;;;;;;3.65;62.53;100679.69;102483;1257;1003019;-79
2023/01/27 11:05:20;;;;;;;47.90;29.20;;;;;;;3.55;62.81;100680.67;103358;1257;97807;-81
2023/01/27 11:07:51;;;;;;;48.60;29.10;;;;;;;3.46;62.87;100679.63;103403;1257;110511;-81
2023/01/27 11:10:21;;;;;;;48.00;28.70;;;;;;;3.36;62.93;100678.38;103242;1264;139077;-81
2023/01/27 11:12:51;;;;;;;50.50;28.80;;;;;;;3.28;63.34;100668.73;102460;1254;1003544;-77
2023/01/27 11:15:25;;;;;;;47.60;28.60;;;;;;;3.19;63.39;100668.50;103154;1256;138108;-78
2023/01/27 11:17:57;;;;;;;46.70;28.20;;;;;;;3.12;63.57;100663.84;103334;1254;97801;-76
2023/01/27 11:20:33;;;;;;;49.60;28.70;;;;;;;3.06;63.80;100660.38;103332;1254;110820;-76
2023/01/27 11:23:05;;;;;;;51.70;27.70;;;;;;;2.98;64.11;100661.54;103346;1254;107960;-84
2023/01/27 11:25:44;;;;;;;47.00;28.30;;;;;;;2.90;64.21;100657.21;103231;1255;98987;-80
2023/01/27 11:28:28;;;;;;;45.50;26.90;;;;;;;2.81;64.31;100653.20;103249;1256;137591;-79
2023/01/27 11:31:03;;;;;;;43.00;26.10;;;;;;;2.73;64.31;100652.13;103326;1254;97685;-79
2023/01/27 11:33:43;;;;;;;46.20;27.20;;;;;;;2.65;64.47;100648.11;103057;1256;1002505;-80
2023/01/27 11:36:11;;;;;;;44.60;25.80;;;;;;;2.58;64.56;100649.28;102668;1258;1002714;-80
2023/01/27 11:38:38;;;;;;;43.00;25.20;;;;;;;2.55;64.69;100649.45;103482;1257;98141;-81
2023/01/27 11:41:06;;;;;;;47.80;26.30;;;;;;;2.53;64.78;100649.09;103685;1259;107579;-79
2023/01/27 11:43:35;;;;;;;40.70;25.10;;;;;;;2.50;65.03;100651.27;103463;1254;97925;-79